createdAt,value
2023-04-20T04:57:55.616Z,8.90
2023-04-20T05:00:58.917Z,10.00
2023-04-20T05:04:02.363Z,9.27
2023-04-20T05:07:05.501Z,8.73
2023-04-20T05:10:09.655Z,8.77
2023-04-20T05:13:16.696Z,9.50
2023-04-20T05:16:19.995Z,9.25
2023-04-20T05:19:23.398Z,9.50
2023-04-20T05:22:28.088Z,9.60
2023-04-20T05:25:32.689Z,9.15
2023-04-20T05:28:37.203Z,9.73
2023-04-20T05:31:40.781Z,9.40
2023-04-20T05:34:44.164Z,9.30
2023-04-20T05:37:48.691Z,9.07
2023-04-20T05:40:57.593Z,8.93
2023-04-20T05:44:02.363Z,9.13
2023-04-20T05:47:06.500Z,9.35
2023-04-20T05:50:10.974Z,8.10
2023-04-20T05:53:14.129Z,8.60
2023-04-20T05:56:18.571Z,7.78
2023-04-20T05:59:23.796Z,8.05
2023-04-20T06:02:30.152Z,8.23
2023-04-20T06:05:34.585Z,8.60
2023-04-20T06:08:38.215Z,8.10
2023-04-20T06:11:42.563Z,8.00
2023-04-20T06:14:48.055Z,8.10
2023-04-20T06:17:51.363Z,7.57
2023-04-20T06:20:55.256Z,6.63
2023-04-20T06:23:59.065Z,7.37
2023-04-20T06:27:02.731Z,6.68
2023-04-20T06:30:09.198Z,6.95
2023-04-20T06:33:17.148Z,5.65
2023-04-20T06:36:21.423Z,7.17
2023-04-20T06:39:25.132Z,6.80
2023-04-20T06:42:30.324Z,6.47
2023-04-20T06:45:34.836Z,6.80
2023-04-20T06:48:41.535Z,6.57
2023-04-20T06:51:45.745Z,6.03
2023-04-20T06:54:48.937Z,5.73
2023-04-20T06:58:07.083Z,6.45
2023-04-20T07:01:13.300Z,6.10
2023-04-20T07:04:16.713Z,6.80
2023-04-20T07:07:19.934Z,6.43
2023-04-20T07:10:26.209Z,6.17
2023-04-20T07:13:33.873Z,6.30
2023-04-20T07:16:38.791Z,6.57
2023-04-20T07:19:42.209Z,6.88
2023-04-20T07:22:49.337Z,5.20
2023-04-20T07:25:57.023Z,3.70
2023-04-20T07:29:17.183Z,5.15
2023-04-20T07:32:27.748Z,4.63
2023-04-20T07:35:33.773Z,4.70
2023-04-20T07:38:37.379Z,5.13
2023-04-20T07:41:44.648Z,5.10
2023-04-20T07:44:47.998Z,4.90
2023-04-20T07:47:54.553Z,5.07
2023-04-20T07:50:59.078Z,5.72
2023-04-20T07:54:02.742Z,6.30
2023-04-20T07:57:13.437Z,5.37
2023-04-20T08:00:18.154Z,5.22
2023-04-20T08:03:22.845Z,5.45
2023-04-20T08:06:27.273Z,4.82
2023-04-20T08:09:30.519Z,3.67
2023-04-20T08:12:33.757Z,4.60
2023-04-20T08:15:37.242Z,4.43
2023-04-20T08:18:42.835Z,4.50
2023-04-20T08:21:46.657Z,4.75
2023-04-20T08:24:54.284Z,4.70
2023-04-20T08:28:00.137Z,4.47
2023-04-20T08:31:04.116Z,4.32
2023-04-20T08:34:09.828Z,4.50
2023-04-20T08:37:15.896Z,4.05
2023-04-20T08:40:20.255Z,5.40
2023-04-20T08:43:23.651Z,4.87
2023-04-20T08:46:27.879Z,4.22
2023-04-20T08:49:33.517Z,4.50
2023-04-20T08:52:39.783Z,4.28
2023-04-20T08:55:43.306Z,4.33
2023-04-20T08:58:48.939Z,4.80
2023-04-20T09:01:53.461Z,4.70
2023-04-20T09:05:05.318Z,4.28
2023-04-20T09:08:12.812Z,4.40
2023-04-20T09:11:26.796Z,4.17
2023-04-20T09:14:48.041Z,3.90
2023-04-20T09:17:52.729Z,4.13
2023-04-20T09:21:09.233Z,4.45
2023-04-20T09:24:14.313Z,4.55
2023-04-20T09:27:18.836Z,4.37
2023-04-20T09:30:21.971Z,4.40
2023-04-20T09:33:29.471Z,4.70
2023-04-20T09:36:42.090Z,3.67
2023-04-20T09:39:46.549Z,4.43
2023-04-20T09:42:53.168Z,4.23
2023-04-20T09:45:57.285Z,4.13
2023-04-20T09:49:02.029Z,3.63
2023-04-20T09:55:51.379Z,3.90
2023-04-20T09:58:55.837Z,3.77
2023-04-20T10:01:59.247Z,3.53
2023-04-20T10:05:03.399Z,3.92
2023-04-20T10:08:08.598Z,3.47
2023-04-20T10:11:11.861Z,3.70
2023-04-20T10:14:19.893Z,4.27
2023-04-20T10:17:31.950Z,3.30
2023-04-20T10:20:35.273Z,3.60
2023-04-20T10:23:50.422Z,4.28
2023-04-20T10:26:53.554Z,3.80
2023-04-20T10:30:01.269Z,4.00
2023-04-20T10:33:17.439Z,3.50
2023-04-20T10:36:29.282Z,4.50
2023-04-20T10:39:38.132Z,4.40
2023-04-20T10:42:46.627Z,4.03
2023-04-20T10:45:50.490Z,4.13
2023-04-20T10:48:58.064Z,3.20
2023-04-20T10:52:01.466Z,4.28
2023-04-20T10:55:08.488Z,3.83
2023-04-20T10:58:22.580Z,4.00
2023-04-20T11:01:26.082Z,3.87
2023-04-20T11:04:33.258Z,3.47
2023-04-20T11:07:36.502Z,3.38
2023-04-20T11:10:42.543Z,3.58
2023-04-20T11:13:45.676Z,3.08
2023-04-20T11:16:53.990Z,3.50
2023-04-20T11:20:06.070Z,2.57
2023-04-20T11:23:16.122Z,3.53
2023-04-20T11:26:20.919Z,3.50
2023-04-20T11:29:32.086Z,4.30
2023-04-20T11:32:40.392Z,3.37
2023-04-20T11:35:45.150Z,3.63
2023-04-20T11:38:54.132Z,3.72
2023-04-20T11:42:03.190Z,3.40
2023-04-20T11:45:08.407Z,3.75
2023-04-20T11:48:11.475Z,4.10
2023-04-20T11:51:16.323Z,3.73
2023-04-20T11:54:20.256Z,3.60
2023-04-20T11:57:25.748Z,4.00
2023-04-20T12:00:31.537Z,3.42
2023-04-20T12:03:35.811Z,3.77
2023-04-20T12:06:39.167Z,3.23
2023-04-20T12:09:44.690Z,3.00
2023-04-20T12:12:49.831Z,2.88
2023-04-20T12:15:52.967Z,3.13
2023-04-20T12:18:56.376Z,3.15
2023-04-20T12:21:59.847Z,2.93
2023-04-20T12:25:02.997Z,3.08
2023-04-20T12:28:07.984Z,3.00
2023-04-20T12:31:11.545Z,3.00
2023-04-20T12:34:15.137Z,3.10
2023-04-20T12:37:18.226Z,2.30
2023-04-20T12:40:24.519Z,2.88
2023-04-20T12:43:30.899Z,2.85
2023-04-20T12:46:34.178Z,3.10
2023-04-20T12:49:40.820Z,3.20
2023-04-20T12:52:45.154Z,3.37
2023-04-20T12:55:55.064Z,3.40
2023-04-20T12:59:05.399Z,2.83
2023-04-20T13:02:08.850Z,3.08
2023-04-20T13:05:12.253Z,2.77
2023-04-20T13:08:21.255Z,2.73
2023-04-20T13:11:27.418Z,3.10
2023-04-20T13:14:33.469Z,3.00
2023-04-20T13:17:36.907Z,2.78
2023-04-20T13:20:40.092Z,3.10
2023-04-20T13:23:44.042Z,3.07
2023-04-20T13:26:47.148Z,3.10
2023-04-20T13:29:51.647Z,2.80
2023-04-20T13:32:54.834Z,3.08
2023-04-20T13:35:58.031Z,2.58
2023-04-20T13:39:02.303Z,2.90
2023-04-20T13:42:06.196Z,3.00
2023-04-20T13:45:12.148Z,2.90
2023-04-20T13:48:15.296Z,3.25
2023-04-20T13:51:18.401Z,3.63
2023-04-20T13:54:21.618Z,3.57
2023-04-20T13:57:24.842Z,3.30
2023-04-20T14:00:31.688Z,3.70
2023-04-20T14:03:36.371Z,3.55
2023-04-20T14:06:39.629Z,3.47
2023-04-20T14:09:44.312Z,3.43
2023-04-20T14:12:49.223Z,4.22
2023-04-20T14:15:55.114Z,3.40
2023-04-20T14:18:58.194Z,3.00
2023-04-20T14:22:01.354Z,3.40
2023-04-20T14:25:06.958Z,3.03
2023-04-20T14:28:11.025Z,3.47
2023-04-20T14:31:15.952Z,3.20
2023-04-20T14:34:19.478Z,3.22
2023-04-20T14:37:24.967Z,3.00
2023-04-20T14:40:28.065Z,3.20
2023-04-20T14:43:32.336Z,3.20
2023-04-20T14:46:37.294Z,3.13
2023-04-20T14:49:40.625Z,3.10
2023-04-20T14:52:44.023Z,3.25
2023-04-20T14:55:47.709Z,3.33
2023-04-20T14:58:51.075Z,3.50
2023-04-20T15:02:03.016Z,3.30
2023-04-20T15:05:10.842Z,3.30
2023-04-20T15:08:14.316Z,3.70
2023-04-20T15:11:17.456Z,3.63
2023-04-20T15:14:21.418Z,3.28
2023-04-20T15:17:26.034Z,3.70
2023-04-20T15:20:29.122Z,3.50
2023-04-20T15:23:32.213Z,3.55
2023-04-20T15:26:35.297Z,3.93
2023-04-20T15:29:38.574Z,3.40
2023-04-20T15:32:43.235Z,3.30
2023-04-20T15:35:46.514Z,3.72
2023-04-20T15:38:56.153Z,3.78
2023-04-20T15:42:02.943Z,3.50
2023-04-20T15:45:07.064Z,3.30
2023-04-20T15:48:11.551Z,3.85
2023-04-20T15:51:14.791Z,3.40
2023-04-20T15:54:19.693Z,3.63
2023-04-20T15:57:24.953Z,3.20
2023-04-20T16:00:28.362Z,3.72
2023-04-20T16:03:32.927Z,3.70
2023-04-20T16:06:37.027Z,3.85
2023-04-20T16:09:40.156Z,4.53
2023-04-20T16:12:43.340Z,4.00
2023-04-20T16:15:46.530Z,4.18
2023-04-20T16:19:00.105Z,3.90
2023-04-20T16:22:03.395Z,3.80
2023-04-20T16:25:09.141Z,4.00
2023-04-20T16:28:12.569Z,3.57
2023-04-20T16:31:16.107Z,3.95
2023-04-20T16:34:21.086Z,3.90
2023-04-20T16:37:24.595Z,4.28
2023-04-20T16:40:28.546Z,3.85
2023-04-20T16:43:31.780Z,3.63
2023-04-20T16:46:35.052Z,3.35
2023-04-20T16:49:39.562Z,3.22
2023-04-20T16:52:42.687Z,3.50
2023-04-20T16:55:46.056Z,3.40
2023-04-20T16:58:49.383Z,3.37
2023-04-20T17:01:52.607Z,3.65
2023-04-20T17:04:57.121Z,3.10
2023-04-20T17:08:00.571Z,2.75
2023-04-20T17:11:04.052Z,2.53
2023-04-20T17:14:07.445Z,2.80
2023-04-20T17:17:12.875Z,3.15
2023-04-20T17:20:17.344Z,3.17
2023-04-20T17:23:22.095Z,2.85
2023-04-20T17:26:25.227Z,2.83
2023-04-20T17:29:34.713Z,2.80
2023-04-20T17:32:37.837Z,2.90
2023-04-20T17:35:43.113Z,3.00
2023-04-20T17:38:46.329Z,2.90
2023-04-20T17:41:49.482Z,2.97
2023-04-20T17:44:52.656Z,2.70
2023-04-20T17:47:55.813Z,3.33
2023-04-20T17:51:00.914Z,3.45
2023-04-20T17:54:05.083Z,3.45
2023-04-20T17:57:09.073Z,3.80
2023-04-20T18:00:13.404Z,3.37
2023-04-20T18:03:16.745Z,3.05
2023-04-20T18:06:21.897Z,2.85
2023-04-20T18:09:25.142Z,3.33
2023-04-20T18:12:28.495Z,3.23
2023-04-20T18:15:31.952Z,3.20
2023-04-20T18:18:36.056Z,2.85
